aviador You're here:

KLPR Decoded Metar

LORAIN/ELYRIA in OH, USA
Report Time2018-06-24 21:53:00
UTC Time2018-06-24 22:41:55
Flight Rules vfr VFR
Wind340° at 13 Gusting to 22 kt
W.Decomp.*RWY 07: 0.9 kt HW 13 kt LCW
W.Rank340° ranks 24
Current wind is above 340° avg. (8.8)
Visibility9999 m
Phenomena:N/A
Clouds:N/A
Expected CloudBase > 2,800 ft AGL from Temp-Dew spread
CeilingNone
Temp23°C (ISA +10)
Dew Point16°C (65% RH)
AAT20.3°C
QNH1015 hPa
Density Alt2,080 ft
Elevation791 ft
Report Wrong Elevation
Raw Report
KLPR 242153Z AUTO 34013G22KT 10SM CLR 23/16 A2997 RMK AO2 PK WND
33026/2135 SLP144 T02280156 $=

Extra information for KLPR:More info

Metar Taf Metar & Taf Last 4 Metars F.Rules Stats Wind Profile Meteogram Temp Stats Airport Information Weather charts Add Link Nearby VenuesMetar ALERT Operation Metar Decoded Social comments

AIRNAV info for KLPR